createdAt,value
2018-08-24T00:00:02.722Z,74.37
2018-08-24T00:02:31.411Z,75.16
2018-08-24T00:05:00.143Z,75.34
2018-08-24T00:07:28.938Z,75.73
2018-08-24T00:09:57.539Z,76.25
2018-08-24T00:12:26.179Z,77.26
2018-08-24T00:14:55.721Z,77.63
2018-08-24T00:17:31.099Z,78.16
2018-08-24T00:20:00.693Z,78.26
2018-08-24T00:22:29.393Z,78.55
2018-08-24T00:24:58.040Z,77.93
2018-08-24T00:27:26.697Z,77.34
2018-08-24T00:29:55.392Z,77.02
2018-08-24T00:32:24.068Z,76.87
2018-08-24T00:34:52.930Z,76.43
2018-08-24T00:37:21.606Z,76.06
2018-08-24T00:39:50.271Z,76.13
2018-08-24T00:42:18.951Z,76.24
2018-08-24T00:44:47.599Z,75.76
2018-08-24T00:47:16.276Z,74.95
2018-08-24T00:49:44.935Z,73.52
2018-08-24T00:52:13.608Z,72.62
2018-08-24T00:54:42.296Z,72.15
2018-08-24T00:57:10.973Z,70.98
2018-08-24T00:59:39.662Z,70.16
2018-08-24T01:02:08.371Z,70.60
2018-08-24T01:04:37.390Z,70.56
2018-08-24T01:07:11.066Z,70.59
2018-08-24T01:09:40.529Z,70.94
2018-08-24T01:12:10.283Z,71.47
2018-08-24T01:14:40.104Z,71.13
2018-08-24T01:17:13.915Z,71.54
2018-08-24T01:19:43.173Z,72.23
2018-08-24T01:22:11.872Z,72.86
2018-08-24T01:24:40.591Z,73.93
2018-08-24T01:27:09.736Z,73.84
2018-08-24T01:29:39.603Z,73.64
2018-08-24T01:32:08.457Z,73.84
2018-08-24T01:34:37.755Z,73.60
2018-08-24T01:37:06.562Z,74.10
2018-08-24T01:39:35.245Z,75.73
2018-08-24T01:42:03.972Z,77.23
2018-08-24T01:44:32.644Z,78.91
2018-08-24T01:47:01.291Z,80.24
2018-08-24T01:49:29.952Z,81.27
2018-08-24T01:51:58.617Z,81.39
2018-08-24T01:54:27.253Z,82.01
2018-08-24T01:56:55.952Z,82.72
2018-08-24T01:59:24.678Z,82.43
2018-08-24T02:01:53.310Z,82.25
2018-08-24T02:04:21.980Z,82.63
2018-08-24T02:06:50.629Z,82.24
2018-08-24T02:09:22.379Z,82.63
2018-08-24T02:11:51.429Z,82.03
2018-08-24T02:14:25.391Z,81.45
2018-08-24T02:16:54.173Z,81.03
2018-08-24T02:19:27.884Z,80.86
2018-08-24T02:22:01.826Z,81.50
2018-08-24T02:24:30.503Z,80.90
2018-08-24T02:26:59.211Z,81.37
2018-08-24T02:29:27.884Z,81.35
2018-08-24T02:31:57.762Z,81.57
2018-08-24T02:34:26.443Z,82.11
2018-08-24T02:36:55.103Z,82.61
2018-08-24T02:39:23.766Z,81.70
2018-08-24T02:41:52.447Z,80.45
2018-08-24T02:44:21.152Z,80.13
2018-08-24T02:46:49.829Z,80.15
2018-08-24T02:49:18.460Z,80.42
2018-08-24T02:51:47.111Z,80.39
2018-08-24T02:54:15.801Z,80.13
2018-08-24T02:56:44.480Z,80.09
2018-08-24T02:59:13.209Z,79.48
2018-08-24T03:01:41.913Z,80.00
2018-08-24T03:04:10.580Z,79.64
2018-08-24T03:06:40.102Z,80.33
2018-08-24T03:09:10.526Z,80.28
2018-08-24T03:11:39.287Z,80.32
2018-08-24T03:14:08.209Z,80.43
2018-08-24T03:16:36.929Z,80.17
2018-08-24T03:19:05.574Z,79.92
2018-08-24T03:21:34.273Z,79.81
2018-08-24T03:24:03.006Z,79.39
2018-08-24T03:26:31.671Z,78.52
2018-08-24T03:29:00.350Z,78.98
2018-08-24T03:31:29.058Z,79.32
2018-08-24T03:33:57.736Z,79.54
2018-08-24T03:36:26.396Z,79.68
2018-08-24T03:38:55.064Z,79.15
2018-08-24T03:41:23.751Z,78.93
2018-08-24T03:43:52.478Z,79.08
2018-08-24T03:46:21.179Z,79.28
2018-08-24T03:48:49.847Z,79.45
2018-08-24T03:51:18.529Z,79.33
2018-08-24T03:53:47.210Z,79.55
2018-08-24T03:56:15.922Z,78.88
2018-08-24T03:58:44.605Z,79.55
2018-08-24T04:01:13.297Z,80.82
2018-08-24T04:03:41.960Z,80.28
2018-08-24T04:06:10.621Z,80.34
2018-08-24T04:08:39.269Z,79.92
2018-08-24T04:11:07.951Z,79.77
2018-08-24T04:13:36.599Z,79.33
2018-08-24T04:16:05.270Z,78.90
2018-08-24T04:18:33.959Z,78.31
2018-08-24T04:21:02.616Z,76.91
2018-08-24T04:23:31.297Z,76.92
2018-08-24T04:25:59.951Z,77.21
2018-08-24T04:28:28.625Z,77.36
2018-08-24T04:30:57.278Z,77.26
2018-08-24T04:33:25.935Z,77.22
2018-08-24T04:35:54.597Z,77.50
2018-08-24T04:38:23.261Z,77.12
2018-08-24T04:40:52.063Z,77.09
2018-08-24T04:43:20.705Z,77.02
2018-08-24T04:45:49.415Z,77.18
2018-08-24T04:48:18.079Z,77.00
2018-08-24T04:50:46.762Z,77.13
2018-08-24T04:53:15.444Z,77.37
2018-08-24T04:55:44.184Z,77.13
2018-08-24T04:58:12.860Z,77.91
2018-08-24T05:00:41.599Z,77.59
2018-08-24T05:03:10.266Z,77.25
2018-08-24T05:05:39.074Z,77.18
2018-08-24T05:08:07.760Z,77.31
2018-08-24T05:10:36.441Z,76.64
2018-08-24T05:13:05.117Z,76.90
2018-08-24T05:15:34.203Z,77.32
2018-08-24T05:18:02.908Z,76.17
2018-08-24T05:20:31.585Z,76.39
2018-08-24T05:23:00.273Z,76.32
2018-08-24T05:25:28.941Z,76.05
2018-08-24T05:27:57.660Z,76.32
2018-08-24T05:30:26.280Z,78.44
2018-08-24T05:32:55.004Z,80.80
2018-08-24T05:35:23.725Z,81.54
2018-08-24T05:37:52.385Z,81.88
2018-08-24T05:40:21.093Z,82.34
2018-08-24T05:42:49.784Z,82.37
2018-08-24T05:45:18.464Z,82.36
2018-08-24T05:47:47.101Z,82.22
2018-08-24T05:50:15.768Z,83.04
2018-08-24T05:52:44.457Z,82.98
2018-08-24T05:55:13.321Z,83.16
2018-08-24T05:57:42.069Z,83.10
2018-08-24T06:00:10.839Z,82.77
2018-08-24T06:02:39.617Z,82.49
2018-08-24T06:05:08.343Z,81.52
2018-08-24T06:07:36.986Z,81.36
2018-08-24T06:10:05.700Z,81.20
2018-08-24T06:12:34.409Z,81.33
2018-08-24T06:15:03.135Z,81.87
2018-08-24T06:17:37.036Z,81.42
2018-08-24T06:20:06.242Z,81.87
2018-08-24T06:22:34.921Z,82.36
2018-08-24T06:25:03.615Z,83.01
2018-08-24T06:27:32.298Z,84.60
2018-08-24T06:30:01.008Z,84.40
2018-08-24T06:32:29.672Z,85.33
2018-08-24T06:34:58.349Z,85.56
2018-08-24T06:37:27.073Z,85.37
2018-08-24T06:39:55.747Z,85.52
2018-08-24T06:42:24.470Z,85.44
2018-08-24T06:44:53.213Z,85.60
2018-08-24T06:47:21.976Z,85.24
2018-08-24T06:49:50.676Z,84.60
2018-08-24T06:52:19.375Z,84.56
2018-08-24T06:54:48.044Z,83.97
2018-08-24T06:57:16.859Z,84.45
2018-08-24T06:59:45.594Z,83.25
2018-08-24T07:02:14.267Z,83.07
2018-08-24T07:04:42.961Z,81.96
2018-08-24T07:07:11.731Z,82.33
2018-08-24T07:09:40.583Z,80.86
2018-08-24T07:12:11.149Z,79.94
2018-08-24T07:14:40.200Z,79.58
2018-08-24T07:17:08.884Z,78.53
2018-08-24T07:19:37.605Z,77.86
2018-08-24T07:22:06.386Z,77.48
2018-08-24T07:24:35.064Z,77.71
2018-08-24T07:27:03.807Z,77.03
2018-08-24T07:29:32.476Z,77.06
2018-08-24T07:32:01.169Z,77.85
2018-08-24T07:34:29.868Z,77.89
2018-08-24T07:36:58.584Z,77.74
2018-08-24T07:39:27.299Z,77.32
2018-08-24T07:41:55.990Z,76.72
2018-08-24T07:44:24.644Z,76.51
2018-08-24T07:46:53.358Z,76.71
2018-08-24T07:49:22.116Z,77.27
2018-08-24T07:51:50.791Z,77.59
2018-08-24T07:54:19.491Z,78.35
2018-08-24T07:56:48.149Z,78.73
2018-08-24T07:59:16.819Z,79.22
2018-08-24T08:01:45.720Z,79.51
2018-08-24T08:04:14.528Z,78.51
2018-08-24T08:06:43.215Z,78.10
2018-08-24T08:09:11.924Z,77.03
2018-08-24T08:11:41.264Z,75.81
2018-08-24T08:14:10.329Z,75.15
2018-08-24T08:16:39.035Z,74.42
2018-08-24T08:19:07.900Z,74.11
2018-08-24T08:21:36.694Z,74.43
2018-08-24T08:24:05.723Z,75.02
2018-08-24T08:26:34.715Z,75.54
2018-08-24T08:29:03.619Z,75.65
2018-08-24T08:31:32.550Z,75.95
2018-08-24T08:34:01.442Z,74.79
2018-08-24T08:36:30.310Z,74.93
2018-08-24T08:38:59.194Z,76.09
2018-08-24T08:41:27.948Z,76.67
2018-08-24T08:43:56.724Z,76.00
2018-08-24T08:46:25.617Z,76.57
2018-08-24T08:48:54.502Z,76.98
2018-08-24T08:51:23.258Z,77.51
2018-08-24T08:53:52.937Z,78.19
2018-08-24T08:56:21.853Z,79.53
2018-08-24T08:58:50.572Z,79.44
2018-08-24T09:01:19.261Z,79.77
2018-08-24T09:03:47.926Z,78.91
2018-08-24T09:06:16.604Z,75.12
2018-08-24T09:08:45.389Z,73.72
2018-08-24T09:11:14.081Z,73.30
2018-08-24T09:13:42.735Z,72.91
2018-08-24T09:16:11.387Z,71.68
2018-08-24T09:20:48.479Z,71.55
2018-08-24T09:23:22.210Z,71.67
2018-08-24T09:25:56.009Z,70.38
2018-08-24T09:28:29.720Z,70.15
2018-08-24T09:31:03.333Z,70.88
2018-08-24T09:33:31.984Z,70.49
2018-08-24T09:36:04.755Z,70.15
2018-08-24T09:38:33.422Z,71.04
2018-08-24T09:41:02.112Z,71.99
2018-08-24T09:43:35.904Z,72.05
2018-08-24T09:46:04.678Z,71.40
2018-08-24T09:48:38.576Z,71.62
2018-08-24T09:51:12.355Z,69.24
2018-08-24T09:53:46.122Z,68.87
2018-08-24T09:56:14.793Z,68.07
2018-08-24T09:58:43.490Z,67.96
2018-08-24T10:01:17.276Z,67.55
2018-08-24T10:03:51.031Z,68.25
2018-08-24T10:06:24.836Z,68.32
2018-08-24T10:08:53.512Z,67.12
2018-08-24T10:11:22.199Z,67.27
2018-08-24T10:13:50.889Z,67.72
2018-08-24T10:16:19.616Z,68.50
2018-08-24T10:18:48.284Z,69.07
2018-08-24T10:21:16.941Z,69.65
2018-08-24T10:23:45.693Z,71.77
2018-08-24T10:26:14.392Z,73.33
2018-08-24T10:28:43.075Z,74.57
2018-08-24T10:31:11.764Z,74.66
2018-08-24T10:33:40.489Z,74.51
2018-08-24T10:36:09.228Z,74.12
2018-08-24T10:38:37.985Z,74.28
2018-08-24T10:41:06.700Z,74.30
2018-08-24T10:43:35.399Z,73.92
2018-08-24T10:46:04.119Z,73.11
2018-08-24T10:48:32.764Z,72.03
2018-08-24T10:51:01.458Z,71.25
2018-08-24T10:53:30.132Z,71.06
2018-08-24T10:55:58.865Z,70.11
2018-08-24T10:58:27.540Z,70.21
2018-08-24T11:00:56.219Z,70.27
2018-08-24T11:03:24.940Z,68.71
2018-08-24T11:05:53.591Z,68.07
2018-08-24T11:08:22.282Z,68.06
2018-08-24T11:10:50.962Z,69.00
2018-08-24T11:13:19.683Z,69.85
2018-08-24T11:15:50.388Z,71.97
2018-08-24T11:18:19.247Z,74.03
2018-08-24T11:20:48.012Z,75.50
2018-08-24T11:23:16.723Z,77.06
2018-08-24T11:25:45.416Z,78.11
2018-08-24T11:28:14.094Z,77.29
2018-08-24T11:30:42.789Z,76.28
2018-08-24T11:33:11.544Z,72.53
2018-08-24T11:35:40.219Z,72.32
2018-08-24T11:38:08.981Z,70.46
2018-08-24T11:40:37.660Z,69.57
2018-08-24T11:43:06.341Z,66.71
2018-08-24T11:45:35.104Z,67.50
2018-08-24T11:48:03.865Z,67.33
2018-08-24T11:50:32.569Z,66.86
2018-08-24T11:53:01.252Z,64.91
2018-08-24T11:55:29.960Z,64.72
2018-08-24T11:57:58.608Z,64.67
2018-08-24T12:00:33.152Z,63.67
2018-08-24T12:03:02.576Z,63.15
2018-08-24T12:05:31.677Z,62.56
2018-08-24T12:08:00.451Z,62.10
2018-08-24T12:10:29.030Z,62.14
2018-08-24T12:12:58.181Z,62.11
2018-08-24T12:15:26.851Z,61.68
2018-08-24T12:17:55.896Z,63.16
2018-08-24T12:20:24.632Z,63.33
2018-08-24T12:22:53.380Z,63.80
2018-08-24T12:25:22.072Z,64.14
2018-08-24T12:27:50.735Z,66.63
2018-08-24T12:30:19.435Z,69.18
2018-08-24T12:32:48.140Z,69.49
2018-08-24T12:35:16.855Z,67.83
2018-08-24T12:37:46.827Z,65.59
2018-08-24T12:40:16.238Z,65.86
2018-08-24T12:42:45.079Z,66.03
2018-08-24T12:45:13.809Z,65.01
2018-08-24T12:47:42.532Z,65.71
2018-08-24T12:50:11.444Z,66.04
2018-08-24T12:52:40.135Z,65.37
2018-08-24T12:55:08.920Z,65.50
2018-08-24T12:57:37.611Z,67.08
2018-08-24T13:00:06.394Z,70.50
2018-08-24T13:02:35.060Z,73.68
2018-08-24T13:05:03.819Z,76.84
2018-08-24T13:07:32.512Z,77.84
2018-08-24T13:10:01.180Z,78.58
2018-08-24T13:12:29.877Z,78.79
2018-08-24T13:14:58.571Z,78.87
2018-08-24T13:17:27.269Z,79.19
2018-08-24T13:19:55.932Z,79.29
2018-08-24T13:22:24.636Z,79.63
2018-08-24T13:24:53.408Z,79.84
2018-08-24T13:27:22.201Z,80.09
2018-08-24T13:29:50.843Z,80.97
2018-08-24T13:32:19.600Z,79.91
2018-08-24T13:34:48.308Z,79.60
2018-08-24T13:37:17.029Z,78.17
2018-08-24T13:39:45.723Z,78.00
2018-08-24T13:42:14.437Z,78.39
2018-08-24T13:44:43.107Z,77.93
2018-08-24T13:47:11.865Z,76.74
2018-08-24T13:49:40.541Z,76.67
2018-08-24T13:52:09.260Z,75.10
2018-08-24T13:54:37.953Z,74.44
2018-08-24T13:57:06.684Z,74.01
2018-08-24T13:59:35.477Z,74.29
2018-08-24T14:02:04.194Z,74.30
2018-08-24T14:04:32.879Z,73.97
2018-08-24T14:07:01.600Z,73.77
2018-08-24T14:09:30.336Z,73.82
2018-08-24T14:11:59.072Z,73.66
2018-08-24T14:14:27.773Z,75.11
2018-08-24T14:16:56.509Z,76.05
2018-08-24T14:19:25.232Z,74.90
2018-08-24T14:21:53.961Z,73.67
2018-08-24T14:24:22.732Z,73.96
2018-08-24T14:26:51.418Z,74.52
2018-08-24T14:29:20.165Z,74.71
2018-08-24T14:31:49.039Z,74.94
2018-08-24T14:34:17.657Z,75.08
2018-08-24T14:36:46.407Z,77.15
2018-08-24T14:39:15.113Z,78.90
2018-08-24T14:41:43.787Z,80.26
2018-08-24T14:44:12.692Z,78.47
2018-08-24T14:46:41.378Z,76.66
2018-08-24T14:49:10.086Z,76.03
2018-08-24T14:51:38.856Z,75.42
2018-08-24T14:54:07.640Z,74.84
2018-08-24T14:56:36.324Z,74.93
2018-08-24T14:59:05.060Z,73.99
2018-08-24T15:01:33.811Z,74.59
2018-08-24T15:04:02.519Z,74.12
2018-08-24T15:06:31.249Z,74.71
2018-08-24T15:08:59.970Z,77.04
2018-08-24T15:11:28.680Z,79.57
2018-08-24T15:13:57.355Z,81.59
2018-08-24T15:16:26.074Z,83.33
2018-08-24T15:18:54.788Z,83.63
2018-08-24T15:21:23.475Z,83.65
2018-08-24T15:23:52.180Z,83.80
2018-08-24T15:26:21.087Z,84.24
2018-08-24T15:28:49.872Z,84.33
2018-08-24T15:31:18.587Z,84.57
2018-08-24T15:33:47.323Z,85.05
2018-08-24T15:36:16.004Z,84.60
2018-08-24T15:38:44.694Z,83.99
2018-08-24T15:41:13.388Z,83.96
2018-08-24T15:43:42.069Z,84.32
2018-08-24T15:46:10.815Z,85.17
2018-08-24T15:48:39.532Z,86.65
2018-08-24T15:51:08.217Z,87.55
2018-08-24T15:53:36.922Z,88.51
2018-08-24T15:56:05.698Z,89.36
2018-08-24T15:58:34.420Z,90.48
2018-08-24T16:01:03.111Z,90.90
2018-08-24T16:03:31.789Z,92.17
2018-08-24T16:06:00.487Z,92.43
2018-08-24T16:08:29.235Z,92.16
2018-08-24T16:10:57.912Z,91.21
2018-08-24T16:13:26.612Z,90.77
2018-08-24T16:15:55.367Z,90.39
2018-08-24T16:18:24.876Z,89.96
2018-08-24T16:20:54.404Z,90.16
2018-08-24T16:23:23.131Z,89.97
2018-08-24T16:25:51.880Z,89.76
2018-08-24T16:28:20.672Z,90.04
2018-08-24T16:30:49.352Z,90.58
2018-08-24T16:33:18.645Z,90.50
2018-08-24T16:35:47.395Z,91.77
2018-08-24T16:38:16.567Z,92.01
2018-08-24T16:40:45.220Z,92.69
2018-08-24T16:43:14.473Z,92.36
2018-08-24T16:45:43.183Z,93.40
2018-08-24T16:48:12.885Z,93.52
2018-08-24T16:50:41.608Z,93.52
2018-08-24T16:53:10.268Z,93.57
2018-08-24T16:55:38.968Z,93.63
2018-08-24T16:58:07.780Z,94.13
2018-08-24T17:00:36.429Z,93.70
2018-08-24T17:03:05.100Z,94.10
2018-08-24T17:05:33.783Z,93.94
2018-08-24T17:08:02.439Z,94.01
2018-08-24T17:10:31.101Z,94.29
2018-08-24T17:12:59.889Z,93.76
2018-08-24T17:15:28.518Z,93.99
2018-08-24T17:17:57.249Z,94.38
2018-08-24T17:20:25.936Z,94.41
2018-08-24T17:22:54.622Z,94.25
2018-08-24T17:25:23.336Z,94.05
2018-08-24T17:27:52.011Z,94.44
2018-08-24T17:30:20.715Z,94.00
2018-08-24T17:32:49.463Z,93.68
2018-08-24T17:35:18.119Z,93.56
2018-08-24T17:37:46.794Z,93.40
2018-08-24T17:40:15.476Z,93.31
2018-08-24T17:42:44.168Z,91.60
2018-08-24T17:45:12.860Z,90.95
2018-08-24T17:47:41.620Z,90.65
2018-08-24T17:50:10.309Z,91.17
2018-08-24T17:52:38.989Z,91.61
2018-08-24T17:55:07.873Z,91.74
2018-08-24T17:57:36.584Z,91.29
2018-08-24T18:00:05.407Z,91.32
2018-08-24T18:02:34.071Z,90.12
2018-08-24T18:05:02.747Z,90.13
2018-08-24T18:07:31.440Z,89.30
2018-08-24T18:10:00.121Z,90.04
2018-08-24T18:12:28.816Z,90.27
2018-08-24T18:14:57.596Z,90.04
2018-08-24T18:17:26.210Z,89.93
2018-08-24T18:19:54.916Z,89.42
2018-08-24T18:22:23.603Z,88.90
2018-08-24T18:24:52.288Z,88.53
2018-08-24T18:27:21.008Z,88.67
2018-08-24T18:29:49.791Z,88.16
2018-08-24T18:32:18.485Z,87.57
2018-08-24T18:34:47.151Z,87.08
2018-08-24T18:37:15.816Z,86.34
2018-08-24T18:39:44.518Z,85.78
2018-08-24T18:42:13.201Z,84.17
2018-08-24T18:44:41.877Z,83.26
2018-08-24T18:47:10.680Z,82.17
2018-08-24T18:49:39.384Z,82.08
2018-08-24T18:52:08.115Z,81.52
2018-08-24T18:54:36.813Z,81.81
2018-08-24T18:57:05.524Z,82.03
2018-08-24T18:59:34.242Z,81.69
2018-08-24T19:02:02.979Z,81.69
2018-08-24T19:04:31.682Z,81.37
2018-08-24T19:07:00.368Z,80.99
2018-08-24T19:09:29.255Z,78.60
2018-08-24T19:12:04.157Z,78.16
2018-08-24T19:14:33.856Z,76.95
2018-08-24T19:17:02.626Z,77.24
2018-08-24T19:19:36.454Z,79.18
2018-08-24T19:22:05.562Z,81.32
2018-08-24T19:24:34.376Z,82.54
2018-08-24T19:27:03.216Z,83.56
2018-08-24T19:29:37.133Z,83.96
2018-08-24T19:32:05.963Z,83.64
2018-08-24T19:34:34.669Z,83.62
2018-08-24T19:37:03.328Z,83.50
2018-08-24T19:39:32.317Z,83.62
2018-08-24T19:42:06.032Z,83.55
2018-08-24T19:44:34.766Z,83.80
2018-08-24T19:47:03.589Z,83.96
2018-08-24T19:49:35.859Z,83.88
2018-08-24T19:52:04.702Z,83.85
2018-08-24T19:54:33.423Z,83.43
2018-08-24T19:57:07.291Z,83.62
2018-08-24T19:59:36.039Z,83.09
2018-08-24T20:02:04.714Z,82.58
2018-08-24T20:04:33.487Z,82.13
2018-08-24T20:07:07.515Z,81.48
2018-08-24T20:09:41.318Z,80.84
2018-08-24T20:12:10.906Z,80.91
2018-08-24T20:14:44.755Z,79.76
2018-08-24T20:17:32.753Z,79.11
2018-08-24T20:20:01.379Z,79.12
2018-08-24T20:22:30.103Z,78.85
2018-08-24T20:24:58.811Z,78.99
2018-08-24T20:27:27.549Z,78.81
2018-08-24T20:29:56.165Z,79.41
2018-08-24T20:32:24.835Z,79.32
2018-08-24T20:34:53.497Z,78.79
2018-08-24T20:37:22.221Z,78.17
2018-08-24T20:39:50.862Z,77.54
2018-08-24T20:42:19.510Z,77.77
2018-08-24T20:44:48.119Z,77.62
2018-08-24T20:47:16.861Z,77.25
2018-08-24T20:49:45.477Z,76.65
2018-08-24T20:52:14.118Z,77.04
2018-08-24T20:54:42.813Z,76.67
2018-08-24T20:57:11.506Z,76.57
2018-08-24T20:59:40.198Z,77.03
2018-08-24T21:02:09.256Z,77.57
2018-08-24T21:04:37.869Z,77.60
2018-08-24T21:07:06.782Z,77.82
2018-08-24T21:09:35.384Z,77.82
2018-08-24T21:12:04.047Z,78.13
2018-08-24T21:14:32.815Z,78.23
2018-08-24T21:17:01.558Z,77.48
2018-08-24T21:19:30.318Z,77.86
2018-08-24T21:21:59.002Z,78.22
2018-08-24T21:24:27.698Z,77.69
2018-08-24T21:26:56.443Z,77.69
2018-08-24T21:29:25.160Z,78.11
2018-08-24T21:31:53.839Z,78.31
2018-08-24T21:34:22.653Z,77.97
2018-08-24T21:36:51.280Z,78.54
2018-08-24T21:39:19.930Z,78.48
2018-08-24T21:41:48.578Z,78.70
2018-08-24T21:44:17.205Z,79.17
2018-08-24T21:46:45.817Z,79.35
2018-08-24T21:49:14.441Z,79.50
2018-08-24T21:51:43.062Z,79.59
2018-08-24T21:54:11.648Z,79.74
2018-08-24T21:56:40.209Z,80.11
2018-08-24T21:59:08.806Z,80.43
2018-08-24T22:01:37.488Z,80.26
2018-08-24T22:04:06.082Z,80.80
2018-08-24T22:06:34.663Z,80.38
2018-08-24T22:09:03.681Z,80.45
2018-08-24T22:11:32.409Z,80.32
2018-08-24T22:14:01.147Z,80.88
2018-08-24T22:16:29.951Z,80.32
2018-08-24T22:18:58.573Z,81.06
2018-08-24T22:21:27.204Z,80.71
2018-08-24T22:23:55.845Z,80.78
2018-08-24T22:26:24.592Z,80.65
2018-08-24T22:28:53.247Z,80.05
2018-08-24T22:31:21.947Z,79.96
2018-08-24T22:33:50.628Z,79.57
2018-08-24T22:36:19.295Z,79.87
2018-08-24T22:38:48.045Z,79.85
2018-08-24T22:41:16.702Z,79.56
2018-08-24T22:43:45.374Z,79.48
2018-08-24T22:46:13.995Z,79.49
2018-08-24T22:48:42.654Z,79.42
2018-08-24T22:51:11.343Z,78.92
2018-08-24T22:53:39.983Z,79.31
2018-08-24T22:56:08.688Z,79.39
2018-08-24T22:58:37.358Z,79.41
2018-08-24T23:01:06.270Z,79.49
2018-08-24T23:03:34.921Z,79.93
2018-08-24T23:06:03.569Z,79.82
2018-08-24T23:08:32.211Z,80.28
2018-08-24T23:11:01.056Z,80.61
2018-08-24T23:13:29.747Z,80.96
2018-08-24T23:15:58.353Z,80.77
2018-08-24T23:18:27.076Z,80.53
2018-08-24T23:20:55.790Z,80.89
2018-08-24T23:23:24.448Z,81.15
2018-08-24T23:25:53.098Z,81.54
2018-08-24T23:28:21.761Z,81.12
2018-08-24T23:30:50.389Z,81.04
2018-08-24T23:33:19.258Z,81.43
2018-08-24T23:35:47.921Z,81.87
2018-08-24T23:38:16.650Z,81.73
2018-08-24T23:40:45.371Z,81.86
2018-08-24T23:43:14.064Z,81.76
2018-08-24T23:45:42.731Z,81.76
2018-08-24T23:48:11.330Z,82.19
2018-08-24T23:50:39.942Z,81.87
2018-08-24T23:53:08.596Z,82.62
2018-08-24T23:55:37.262Z,82.21
2018-08-24T23:58:06.175Z,82.35
